ENSB

Svalbard , Longyear Airport

Longyearbyen, Norway
METAR ENSB 132350Z 24015KT 9999 SCT008 BKN050 M02/M05 Q0995 RMK WIND 1400FT 26013KT
Observed Flight Rules
Dec-13 @ 23:50 UTC (54 minutes ago) Visual Flight Rules
Wind Visibility Clouds
240° at 15 knots 10,000+ meters
  • Scattered at 800' AGL
  • Broken at 5,000' AGL
Temperatures Readings
Current -2°C / 28°F
Dewpoint -5°C / 23°F
Humidity 80%
Altimeter 29.38" Hg
Pressure 995 hPa
Elevation 29
METAR ENSB 132350Z 24015KT 9999 SCT008 BKN050 M02/M05 Q0995 RMK WIND 1400FT 26013KT
Observed Flight Rules
Dec-13 @ 23:50 UTC
(54 minutes ago)
VFR
Wind Visibility
240° at 15 knots 10,000+ meters
Clouds
  • Scattered at 800' AGL
  • Broken at 5,000' AGL
Temperature Dewpoint
-2°C / 28°F -5°C / 23°F
Humidity Altimeter Pressure
80% 29.38" Hg 995 hPa